Time;durP1;ratioP1;P1;durP2;ratioP2;P2;SDS_P1;SDS_P2;PMS_P1;PMS_P2;Temp;Humidity;BMP_temperature;BMP_pressure;BME280_temperature;BME280_humidity;BME280_pressure;Samples;Min_cycle;Max_cycle;Signal;HPM_P1;HPM_P2
2023/07/14 00:00:59;;;;;;;12.57;11.27;;;;;;;-146.25;100.00;52214.09;2087504;28;35873;-78
2023/07/14 00:02:00;;;;;;;14.45;12.75;;;;;;;-146.25;100.00;52210.03;2088540;28;20033;-78
2023/07/14 00:03:03;;;;;;;14.77;12.43;;;;;;;-146.25;100.00;52208.03;2088079;28;34436;-78
2023/07/14 00:04:26;;;;;;;18.58;13.70;;;;;;;-146.25;100.00;52128.94;2087333;28;31380;-78
2023/07/14 00:05:33;;;;;;;14.90;12.55;;;;;;;-146.25;100.00;52183.69;2088800;28;20049;-76
2023/07/14 00:06:35;;;;;;;16.85;13.70;;;;;;;-146.25;100.00;52189.78;2087762;28;38923;-78
2023/07/14 00:07:39;;;;;;;15.10;13.18;;;;;;;-146.25;100.00;52224.25;2087876;28;31965;-78
2023/07/14 00:08:42;;;;;;;18.02;13.77;;;;;;;-146.25;100.00;52165.44;2090513;28;20041;-77
2023/07/14 00:09:44;;;;;;;16.08;13.13;;;;;;;-146.25;100.00;52228.28;2087572;28;37222;-78
2023/07/14 00:10:46;;;;;;;19.52;15.05;;;;;;;-146.25;100.00;52181.66;2096424;28;32803;-78
2023/07/14 00:11:50;;;;;;;13.32;11.30;;;;;;;-146.25;100.00;52230.31;2088963;28;33712;-77
2023/07/14 00:12:52;;;;;;;18.10;14.30;;;;;;;-146.25;100.00;52212.06;2088646;28;35718;-78
2023/07/14 00:13:54;;;;;;;15.63;13.82;;;;;;;-146.25;100.00;52210.03;2088668;28;33025;-78
2023/07/14 00:14:56;;;;;;;13.63;12.00;;;;;;;-146.25;100.00;52220.19;2089838;28;20049;-78
2023/07/14 00:15:58;;;;;;;16.38;13.93;;;;;;;-146.25;100.00;52151.25;2090295;28;37187;-78
2023/07/14 00:17:00;;;;;;;18.52;13.30;;;;;;;-146.25;100.00;52149.22;2089361;28;22375;-78
2023/07/14 00:18:23;;;;;;;15.13;13.45;;;;;;;-146.25;100.00;52224.25;2089087;28;20045;-78
2023/07/14 00:19:26;;;;;;;15.73;12.82;;;;;;;-146.25;100.00;52242.50;2082277;28;34836;-78
2023/07/14 00:20:32;;;;;;;18.30;14.85;;;;;;;-146.25;100.00;52206.00;2079061;28;34910;-76
2023/07/14 00:21:34;;;;;;;17.52;14.73;;;;;;;-146.25;100.00;52214.09;2080673;28;27564;-79
2023/07/14 00:22:36;;;;;;;28.40;17.80;;;;;;;-146.25;100.00;52218.16;2088470;28;20105;-78
2023/07/14 00:23:40;;;;;;;23.35;16.42;;;;;;;-146.25;100.00;52256.69;2088377;28;31367;-78
2023/07/14 00:24:42;;;;;;;19.15;15.75;;;;;;;-146.25;100.00;52206.00;2086719;28;36398;-77
2023/07/14 00:25:47;;;;;;;15.98;14.30;;;;;;;-146.25;100.00;52214.09;2088286;28;20053;-79
2023/07/14 00:26:55;;;;;;;18.85;13.38;;;;;;;-146.25;100.00;52189.78;2087805;28;20155;-79
2023/07/14 00:27:57;;;;;;;17.73;14.73;;;;;;;-146.25;100.00;52212.06;2089209;28;30978;-77
2023/07/14 00:29:04;;;;;;;21.17;16.58;;;;;;;-146.25;100.00;52191.81;2095141;28;22548;-78
2023/07/14 00:30:35;;;;;;;23.75;18.77;;;;;;;-146.25;100.00;52218.16;2087661;28;30016;-77
2023/07/14 00:31:37;;;;;;;23.77;16.83;;;;;;;-146.25;100.00;52189.78;2083440;28;26991;-77
2023/07/14 00:32:40;;;;;;;20.35;16.23;;;;;;;-146.25;100.00;52199.91;2079566;28;20149;-77
2023/07/14 00:33:47;;;;;;;25.27;17.52;;;;;;;-146.25;100.00;52199.91;2087995;28;20064;-79
2023/07/14 00:34:49;;;;;;;21.95;17.67;;;;;;;-146.25;100.00;52167.47;2095204;28;30387;-78
2023/07/14 00:35:52;;;;;;;19.02;15.98;;;;;;;-146.25;100.00;52234.38;2087658;28;20029;-79
2023/07/14 00:36:56;;;;;;;17.05;13.80;;;;;;;-146.25;100.00;52185.72;2087237;28;22221;-77
2023/07/14 00:37:58;;;;;;;27.50;18.23;;;;;;;-146.25;100.00;52177.59;2088223;28;28165;-78
2023/07/14 00:38:59;;;;;;;20.40;16.65;;;;;;;-146.25;100.00;52206.00;2088052;28;27116;-78
2023/07/14 00:40:01;;;;;;;21.83;18.25;;;;;;;-146.25;100.00;52236.41;2088340;28;20084;-79
2023/07/14 00:41:10;;;;;;;20.23;16.92;;;;;;;-146.25;100.00;52222.22;2087390;28;22470;-75
2023/07/14 00:42:16;;;;;;;23.35;16.60;;;;;;;-146.25;100.00;52177.59;2088151;28;29329;-77
2023/07/14 00:43:22;;;;;;;21.45;16.88;;;;;;;-146.25;100.00;52210.03;2079220;28;22798;-77
2023/07/14 00:44:24;;;;;;;25.15;17.35;;;;;;;-146.25;100.00;52254.66;2072764;28;23559;-78
2023/07/14 00:45:30;;;;;;;22.42;17.90;;;;;;;-146.25;100.00;52197.88;2087489;28;20299;-75
2023/07/14 00:46:33;;;;;;;25.88;18.92;;;;;;;-146.25;100.00;52159.34;2081100;28;28426;-77
2023/07/14 00:47:35;;;;;;;26.52;20.13;;;;;;;-146.25;100.00;52210.03;2079887;28;22106;-77
2023/07/14 00:48:38;;;;;;;20.58;16.52;;;;;;;-146.25;100.00;52234.38;2087962;28;20052;-77
2023/07/14 00:49:41;;;;;;;26.73;19.30;;;;;;;-146.25;100.00;52230.31;2086645;28;37238;-77
2023/07/14 00:50:52;;;;;;;21.73;17.33;;;;;;;-146.25;100.00;52254.66;2079061;28;33323;-77
2023/07/14 00:51:57;;;;;;;23.38;18.42;;;;;;;-146.25;100.00;52246.53;2073891;28;31454;-77
2023/07/14 00:53:05;;;;;;;24.77;19.35;;;;;;;-146.25;100.00;52230.31;2072678;28;21890;-77
2023/07/14 00:54:28;;;;;;;26.98;20.60;;;;;;;-146.25;100.00;52163.41;2088350;28;27010;-78
2023/07/14 00:55:42;;;;;;;23.92;17.58;;;;;;;-146.25;100.00;52222.22;2085829;28;31193;-77
2023/07/14 00:56:47;;;;;;;26.42;20.08;;;;;;;-146.25;100.00;52232.34;2083045;28;24494;-77
2023/07/14 00:57:53;;;;;;;26.90;21.55;;;;;;;-146.25;100.00;52214.09;2081525;28;20178;-77
2023/07/14 00:58:55;;;;;;;26.67;19.85;;;;;;;-146.25;100.00;52193.81;2079935;28;32281;-78
2023/07/14 01:00:00;;;;;;;23.50;18.67;;;;;;;-146.25;100.00;52206.00;2079120;28;20955;-78
2023/07/14 01:01:21;;;;;;;26.17;20.65;;;;;;;-146.25;100.00;52197.88;2079322;28;30354;-78
2023/07/14 01:02:24;;;;;;;23.02;18.95;;;;;;;-146.25;100.00;52185.72;2087817;28;20814;-75
2023/07/14 01:03:27;;;;;;;21.73;17.77;;;;;;;-146.25;100.00;52171.53;2087725;28;20038;-78
2023/07/14 01:04:29;;;;;;;27.13;21.40;;;;;;;-146.25;100.00;52206.00;2088258;28;20077;-78
2023/07/14 01:05:32;;;;;;;29.20;20.70;;;;;;;-146.25;100.00;52218.16;2087247;28;30533;-78
2023/07/14 01:06:40;;;;;;;29.50;20.17;;;;;;;-146.25;100.00;52210.03;2079536;28;20042;-78
2023/07/14 01:07:44;;;;;;;27.85;19.75;;;;;;;-146.25;100.00;52214.09;2080308;28;20038;-77
2023/07/14 01:09:07;;;;;;;26.98;21.48;;;;;;;-146.25;100.00;52193.81;2079372;28;34003;-78
2023/07/14 01:10:15;;;;;;;26.42;20.58;;;;;;;-146.25;100.00;52197.88;2081947;28;20041;-77
2023/07/14 01:11:22;;;;;;;29.17;22.70;;;;;;;-146.25;100.00;52197.88;2079972;28;20049;-78
2023/07/14 01:12:26;;;;;;;29.98;22.00;;;;;;;-146.25;100.00;52218.16;2072421;28;25262;-77
2023/07/14 01:13:29;;;;;;;35.80;24.40;;;;;;;-146.25;100.00;52232.34;2063121;28;24905;-76
2023/07/14 01:14:46;;;;;;;30.85;21.88;;;;;;;-146.25;100.00;52193.81;2063754;28;27543;-77
2023/07/14 01:15:48;;;;;;;31.75;22.42;;;;;;;-146.25;100.00;52208.03;2074263;28;20057;-77
2023/07/14 01:16:53;;;;;;;28.52;22.30;;;;;;;-146.25;100.00;52222.22;2071834;28;20854;-71
2023/07/14 01:17:55;;;;;;;31.40;23.27;;;;;;;-146.25;100.00;52195.84;2079964;28;29065;-70
2023/07/14 01:18:58;;;;;;;37.72;27.40;;;;;;;-146.25;100.00;52218.16;2071305;28;21010;-73
2023/07/14 01:20:03;;;;;;;29.20;23.27;;;;;;;-146.25;100.00;52232.34;2071263;28;28646;-78
2023/07/14 01:21:05;;;;;;;33.33;26.00;;;;;;;-146.25;100.00;52210.03;2071719;28;20167;-70
2023/07/14 01:22:37;;;;;;;30.90;23.13;;;;;;;-146.25;100.00;52248.56;2079717;28;26991;-73
2023/07/14 01:24:16;;;;;;;22.58;18.77;;;;;;;-146.25;100.00;52240.47;2088037;28;24928;-70
2023/07/14 01:25:36;;;;;;;30.63;22.43;;;;;;;-146.25;100.00;52250.59;2077898;28;21020;-70
2023/07/14 01:27:02;;;;;;;30.92;22.67;;;;;;;-146.25;100.00;52246.53;2082004;28;20273;-73
2023/07/14 01:28:08;;;;;;;35.45;25.98;;;;;;;-146.25;100.00;52187.75;2087492;28;25089;-75
2023/07/14 01:29:10;;;;;;;38.00;24.92;;;;;;;-146.25;100.00;52214.09;2080661;28;32379;-72
2023/07/14 01:30:16;;;;;;;33.00;24.08;;;;;;;-146.25;100.00;52238.44;2078478;28;27534;-73
2023/07/14 01:31:23;;;;;;;36.05;26.63;;;;;;;-146.25;100.00;52203.97;2070881;28;32398;-72
2023/07/14 01:32:36;;;;;;;37.17;28.13;;;;;;;-146.25;100.00;52226.25;2081060;28;20048;-78
2023/07/14 01:33:38;;;;;;;46.17;31.25;;;;;;;-146.25;100.00;52175.56;2078395;28;21271;-73
2023/07/14 01:34:40;;;;;;;44.58;29.33;;;;;;;-146.25;100.00;52220.19;2071476;28;31893;-71
2023/07/14 01:35:58;;;;;;;43.85;30.85;;;;;;;-146.25;100.00;52220.19;2086983;28;26156;-70
2023/07/14 01:37:00;;;;;;;39.33;27.33;;;;;;;-146.25;100.00;52197.88;2078643;28;26326;-77
2023/07/14 01:38:02;;;;;;;40.97;30.58;;;;;;;-146.25;100.00;52216.13;2072872;28;28427;-69
2023/07/14 01:39:04;;;;;;;47.58;32.75;;;;;;;-146.25;100.00;52240.47;2079812;28;20041;-78
2023/07/14 01:40:12;;;;;;;44.33;31.25;;;;;;;-146.25;100.00;52212.06;2086758;28;32535;-71
2023/07/14 01:41:15;;;;;;;49.30;33.63;;;;;;;-146.25;100.00;52193.81;2089275;28;20045;-76
2023/07/14 01:42:18;;;;;;;43.17;30.55;;;;;;;-146.25;100.00;52230.31;2078832;28;20026;-71
2023/07/14 01:43:21;;;;;;;46.55;31.45;;;;;;;-146.25;100.00;52159.34;2079768;28;20127;-71
2023/07/14 01:44:25;;;;;;;55.22;34.05;;;;;;;-146.25;100.00;52199.91;2087590;28;20083;-71
2023/07/14 01:45:34;;;;;;;48.42;32.70;;;;;;;-146.25;100.00;52185.72;2087711;28;30933;-71
2023/07/14 01:46:36;;;;;;;49.15;31.25;;;;;;;-146.25;100.00;52242.50;2078112;28;20892;-74
2023/07/14 01:47:41;;;;;;;45.28;31.90;;;;;;;-146.25;100.00;52230.31;2071815;28;30414;-75
2023/07/14 01:48:57;;;;;;;49.13;32.75;;;;;;;-146.25;100.00;52224.25;2087931;28;20038;-74
2023/07/14 01:50:01;;;;;;;52.80;34.13;;;;;;;-146.25;100.00;52232.34;2087291;28;20057;-70
2023/07/14 01:51:10;;;;;;;46.53;31.48;;;;;;;-146.25;100.00;52218.16;2087388;28;20101;-74
2023/07/14 01:52:21;;;;;;;40.90;31.42;;;;;;;-146.25;100.00;52220.19;2070883;28;20148;-77
2023/07/14 01:53:42;;;;;;;53.90;34.78;;;;;;;-146.25;100.00;52179.63;2068037;28;20089;-72
2023/07/14 01:54:55;;;;;;;40.67;30.08;;;;;;;-146.25;100.00;52203.97;2082094;28;20189;-73
2023/07/14 01:56:04;;;;;;;55.28;35.45;;;;;;;-146.25;100.00;52218.16;2073720;28;20233;-70
2023/07/14 01:57:15;;;;;;;49.83;32.40;;;;;;;-146.25;100.00;52238.44;2066126;28;20183;-74
2023/07/14 01:58:23;;;;;;;;;;;;;;;-146.25;100.00;52216.13;2066063;28;26764;-73
2023/07/14 01:59:33;;;;;;;50.17;34.05;;;;;;;-146.25;100.00;52220.19;2081279;28;20074;-71
2023/07/14 02:00:39;;;;;;;60.85;35.60;;;;;;;-146.25;100.00;52193.81;2074246;28;20855;-71
2023/07/14 02:01:43;;;;;;;50.83;32.72;;;;;;;-146.25;100.00;52212.06;2073478;28;20117;-74
2023/07/14 02:02:47;;;;;;;52.15;34.38;;;;;;;-146.25;100.00;52206.00;2085942;28;20118;-69
2023/07/14 02:03:54;;;;;;;49.22;31.55;;;;;;;-146.25;100.00;52218.16;2070530;28;27882;-72
2023/07/14 02:04:56;;;;;;;56.35;36.10;;;;;;;-146.25;100.00;52218.16;2073028;28;20046;-72
2023/07/14 02:05:58;;;;;;;43.55;30.92;;;;;;;-146.25;100.00;52242.50;2070964;28;20123;-72
2023/07/14 02:07:01;;;;;;;52.55;34.10;;;;;;;-146.25;100.00;52244.50;2063146;28;20047;-76
2023/07/14 02:08:10;;;;;;;38.22;28.33;;;;;;;-146.25;100.00;52216.13;2071443;28;20061;-75
2023/07/14 02:09:18;;;;;;;42.25;30.83;;;;;;;-146.25;100.00;52226.25;2063405;28;20050;-71
2023/07/14 02:10:21;;;;;;;48.70;33.92;;;;;;;-146.25;100.00;52212.06;2073346;28;21073;-71
2023/07/14 02:11:24;;;;;;;56.42;34.55;;;;;;;-146.25;100.00;52238.44;2079494;28;20038;-74
2023/07/14 02:12:34;;;;;;;47.17;31.42;;;;;;;-146.25;100.00;52214.09;2070888;28;20148;-74
2023/07/14 02:13:38;;;;;;;47.47;32.70;;;;;;;-146.25;100.00;52193.81;2065242;28;20150;-70
2023/07/14 02:14:53;;;;;;;50.45;32.55;;;;;;;-146.25;100.00;52214.09;2070437;28;34451;-77
2023/07/14 02:15:57;;;;;;;46.13;32.28;;;;;;;-146.25;100.00;52206.00;2068333;28;20050;-71
2023/07/14 02:17:12;;;;;;;52.15;34.70;;;;;;;-146.25;100.00;52210.03;2064082;28;20091;-77
2023/07/14 02:18:20;;;;;;;49.00;32.22;;;;;;;-146.25;100.00;52216.13;2068892;28;20106;-79
2023/07/14 02:19:25;;;;;;;51.65;35.67;;;;;;;-146.25;100.00;52226.25;2072875;28;20097;-79
2023/07/14 02:20:41;;;;;;;51.95;34.08;;;;;;;-146.25;100.00;52212.06;2079579;28;20949;-78
2023/07/14 02:21:49;;;;;;;57.58;33.90;;;;;;;-146.25;100.00;52210.03;2074142;28;20178;-77
2023/07/14 02:22:53;;;;;;;55.67;36.45;;;;;;;-146.25;100.00;52183.69;2082050;28;28590;-77
2023/07/14 02:23:59;;;;;;;49.15;33.25;;;;;;;-146.25;100.00;52177.59;2088431;28;20052;-78
2023/07/14 02:25:07;;;;;;;50.15;32.63;;;;;;;-146.25;100.00;52234.38;2074104;28;20030;-77
2023/07/14 02:26:36;;;;;;;54.78;36.83;;;;;;;-146.25;100.00;52214.09;2082165;28;20787;-77
2023/07/14 02:27:38;;;;;;;47.30;31.08;;;;;;;-146.25;100.00;52242.50;2088450;28;29774;-77
2023/07/14 02:28:42;;;;;;;42.47;30.85;;;;;;;-146.25;100.00;52236.41;2088745;28;34155;-77
2023/07/14 02:29:44;;;;;;;46.13;31.27;;;;;;;-146.25;100.00;52230.31;2088593;28;20041;-78
2023/07/14 02:30:54;;;;;;;42.53;29.70;;;;;;;-146.25;100.00;52224.25;2088175;28;29646;-78
2023/07/14 02:32:20;;;;;;;39.90;28.17;;;;;;;-146.25;100.00;52193.81;2089411;28;20088;-78
2023/07/14 02:33:30;;;;;;;51.83;32.58;;;;;;;-146.25;100.00;52256.69;2080200;28;20255;-78
2023/07/14 02:34:36;;;;;;;46.58;31.98;;;;;;;-146.25;100.00;52216.13;2076288;28;31744;-78
2023/07/14 02:36:10;;;;;;;47.00;31.40;;;;;;;-146.25;100.00;52226.25;2082004;28;20115;-77
2023/07/14 02:37:42;;;;;;;45.75;32.47;;;;;;;-146.25;100.00;52246.53;2085417;28;22637;-77
2023/07/14 02:38:44;;;;;;;48.17;31.20;;;;;;;-146.25;100.00;52216.13;2084653;28;20900;-77
2023/07/14 02:39:48;;;;;;;51.08;33.20;;;;;;;-146.25;100.00;52238.44;2087532;28;34474;-77
2023/07/14 02:41:22;;;;;;;53.90;33.83;;;;;;;-146.25;100.00;52250.59;2079749;28;20140;-76
2023/07/14 02:42:25;;;;;;;57.38;36.42;;;;;;;-146.25;100.00;52250.59;2076477;28;20101;-77
2023/07/14 02:43:28;;;;;;;46.50;29.15;;;;;;;-146.25;100.00;52266.81;2076568;28;24148;-77
2023/07/14 02:44:36;;;;;;;56.03;34.75;;;;;;;-146.25;100.00;52210.03;2088116;28;24029;-75
2023/07/14 02:46:10;;;;;;;45.97;30.48;;;;;;;-146.25;100.00;52224.25;2088588;28;26951;-78
2023/07/14 02:47:20;;;;;;;39.63;26.70;;;;;;;-146.25;100.00;52224.25;2087319;28;20084;-77
2023/07/14 02:48:37;;;;;;;42.05;28.83;;;;;;;-146.25;100.00;52248.56;2079378;28;33788;-77
2023/07/14 02:49:40;;;;;;;42.70;28.38;;;;;;;-146.25;100.00;52234.38;2076342;28;25372;-77
2023/07/14 02:50:42;;;;;;;38.13;26.65;;;;;;;-146.25;100.00;52214.09;2087514;28;29620;-77
2023/07/14 02:51:44;;;;;;;34.13;23.83;;;;;;;-146.25;100.00;52240.47;2097188;28;20260;-77
2023/07/14 02:52:48;;;;;;;43.85;29.33;;;;;;;-146.25;100.00;52248.56;2088126;28;20046;-76
2023/07/14 02:53:49;;;;;;;47.72;32.67;;;;;;;-146.25;100.00;52226.25;2088546;28;24209;-76
2023/07/14 02:54:51;;;;;;;39.72;27.00;;;;;;;-146.25;100.00;52238.44;2087597;28;33610;-75
2023/07/14 02:55:53;;;;;;;42.95;30.27;;;;;;;-146.25;100.00;52228.28;2080066;28;29508;-76
2023/07/14 02:56:55;;;;;;;37.15;26.83;;;;;;;-146.25;100.00;52179.63;2088189;28;20041;-76
2023/07/14 02:57:57;;;;;;;37.00;26.05;;;;;;;-146.25;100.00;52234.38;2089291;28;20029;-76
2023/07/14 02:59:00;;;;;;;44.22;30.52;;;;;;;-146.25;100.00;52230.31;2088476;28;30656;-76
2023/07/14 03:00:07;;;;;;;43.92;30.65;;;;;;;-146.25;100.00;52238.44;2088854;28;27334;-76
2023/07/14 03:01:08;;;;;;;38.53;25.65;;;;;;;-146.25;100.00;52228.28;2079813;28;22109;-76
2023/07/14 03:02:13;;;;;;;33.55;24.75;;;;;;;-146.25;100.00;52262.75;2080923;28;20108;-77
2023/07/14 03:03:15;;;;;;;31.52;23.92;;;;;;;-146.25;100.00;52264.78;2088923;28;20052;-77
2023/07/14 03:04:17;;;;;;;33.58;24.35;;;;;;;-146.25;100.00;52234.38;2087802;28;24696;-77
2023/07/14 03:05:19;;;;;;;36.67;28.88;;;;;;;-146.25;100.00;52254.66;2080235;28;20046;-77
2023/07/14 03:06:22;;;;;;;45.95;30.05;;;;;;;-146.25;100.00;52258.72;2088318;28;32337;-77
2023/07/14 03:07:23;;;;;;;48.53;31.58;;;;;;;-146.25;100.00;52199.91;2088899;28;20122;-77
2023/07/14 03:08:29;;;;;;;37.95;26.48;;;;;;;-146.25;100.00;52234.38;2089310;28;20037;-77
2023/07/14 03:09:30;;;;;;;36.42;27.45;;;;;;;-146.25;100.00;52250.59;2088348;28;20052;-77
2023/07/14 03:10:32;;;;;;;34.42;26.10;;;;;;;-146.25;100.00;52214.09;2087723;28;30300;-77
2023/07/14 03:11:34;;;;;;;37.20;26.02;;;;;;;-146.25;100.00;52242.50;2088678;28;24755;-76
2023/07/14 03:12:36;;;;;;;32.40;23.95;;;;;;;-146.25;100.00;52230.31;2088935;28;28124;-77
2023/07/14 03:13:38;;;;;;;46.40;30.30;;;;;;;-146.25;100.00;52224.25;2089090;28;20122;-76
2023/07/14 03:14:40;;;;;;;37.05;26.13;;;;;;;-146.25;100.00;52201.94;2088856;28;24429;-77
2023/07/14 03:15:43;;;;;;;41.55;27.40;;;;;;;-146.25;100.00;52244.50;2088640;28;24291;-76
2023/07/14 03:16:45;;;;;;;34.38;24.48;;;;;;;-146.25;100.00;52206.00;2088769;28;26848;-76
2023/07/14 03:17:48;;;;;;;39.97;27.27;;;;;;;-146.25;100.00;52222.22;2088276;28;20111;-76
2023/07/14 03:18:50;;;;;;;37.58;28.08;;;;;;;-146.25;100.00;52250.59;2080232;28;20046;-76
2023/07/14 03:19:52;;;;;;;41.53;28.45;;;;;;;-146.25;100.00;52226.25;2079519;28;24248;-76
2023/07/14 03:20:59;;;;;;;48.58;30.60;;;;;;;-146.25;100.00;52254.66;2087786;28;27016;-77
2023/07/14 03:22:01;;;;;;;48.28;30.55;;;;;;;-146.25;100.00;52218.16;2080174;28;21002;-76
2023/07/14 03:23:04;;;;;;;51.53;34.17;;;;;;;-146.25;100.00;52254.66;2079679;28;32360;-76
2023/07/14 03:24:07;;;;;;;56.13;32.42;;;;;;;-146.25;100.00;52256.69;2080665;28;20050;-76
2023/07/14 03:25:10;;;;;;;46.70;31.05;;;;;;;-146.25;100.00;52252.63;2088896;28;20151;-75
2023/07/14 03:26:12;;;;;;;49.90;31.55;;;;;;;-146.25;100.00;52220.19;2087080;28;22383;-76
2023/07/14 03:27:14;;;;;;;52.10;33.15;;;;;;;-146.25;100.00;52234.38;2088138;28;20036;-77
2023/07/14 03:28:16;;;;;;;43.80;29.75;;;;;;;-146.25;100.00;52250.59;2079731;28;20048;-76
2023/07/14 03:29:18;;;;;;;42.13;28.60;;;;;;;-146.25;100.00;52254.66;2080365;28;20050;-77
2023/07/14 03:30:23;;;;;;;44.25;31.08;;;;;;;-146.25;100.00;52252.63;2088434;28;20160;-78
2023/07/14 03:31:25;;;;;;;52.60;33.22;;;;;;;-146.25;100.00;52258.72;2088152;28;28982;-76
2023/07/14 03:32:27;;;;;;;44.05;29.13;;;;;;;-146.25;100.00;52232.34;2095948;28;20910;-77
2023/07/14 03:33:30;;;;;;;38.55;27.50;;;;;;;-146.25;100.00;52250.59;2088310;28;20291;-77
2023/07/14 03:34:34;;;;;;;39.72;26.73;;;;;;;-146.25;100.00;52266.81;2088321;28;20049;-77
2023/07/14 03:35:36;;;;;;;49.45;32.63;;;;;;;-146.25;100.00;52254.66;2088561;28;30353;-77
2023/07/14 03:36:37;;;;;;;38.42;26.73;;;;;;;-146.25;100.00;52238.44;2088121;28;23571;-77
2023/07/14 03:37:41;;;;;;;48.20;31.02;;;;;;;-146.25;100.00;52224.25;2079925;28;20926;-79
2023/07/14 03:38:46;;;;;;;34.78;24.20;;;;;;;-146.25;100.00;52246.53;2071581;28;34641;-78
2023/07/14 03:39:49;;;;;;;35.47;24.83;;;;;;;-146.25;100.00;52226.25;2073965;28;20042;-75
2023/07/14 03:40:51;;;;;;;35.42;25.33;;;;;;;-146.25;100.00;52258.72;2087169;28;30685;-77
2023/07/14 03:41:55;;;;;;;42.55;30.13;;;;;;;-146.25;100.00;52262.75;2087466;28;30482;-79
2023/07/14 03:42:59;;;;;;;51.00;35.13;;;;;;;-146.25;100.00;52238.44;2079683;28;28600;-76
2023/07/14 03:44:02;;;;;;;45.70;29.98;;;;;;;-146.25;100.00;52258.72;2088313;28;20045;-77
2023/07/14 03:45:06;;;;;;;44.75;29.38;;;;;;;-146.25;100.00;52236.41;2088177;28;20799;-78
2023/07/14 03:46:08;;;;;;;40.42;28.65;;;;;;;-146.25;100.00;52222.22;2088063;28;24520;-78
2023/07/14 03:47:10;;;;;;;48.47;32.13;;;;;;;-146.25;100.00;52238.44;2088344;28;29459;-78
2023/07/14 03:48:11;;;;;;;50.55;34.00;;;;;;;-146.25;100.00;52236.41;2087664;28;21037;-78
2023/07/14 03:49:14;;;;;;;49.38;31.02;;;;;;;-146.25;100.00;52287.09;2087361;28;30592;-78
2023/07/14 03:50:16;;;;;;;40.58;28.65;;;;;;;-146.25;100.00;52256.69;2079703;28;20163;-77
2023/07/14 03:51:18;;;;;;;45.00;32.17;;;;;;;-146.25;100.00;52264.78;2080165;28;20049;-76
2023/07/14 03:52:20;;;;;;;50.67;32.95;;;;;;;-146.25;100.00;52203.97;2087961;28;20091;-80
2023/07/14 03:53:22;;;;;;;43.53;30.30;;;;;;;-146.25;100.00;52244.50;2087242;28;25904;-76
2023/07/14 03:54:23;;;;;;;52.15;33.13;;;;;;;-146.25;100.00;52242.50;2096074;28;29493;-78
2023/07/14 03:55:25;;;;;;;43.88;29.95;;;;;;;-146.25;100.00;52252.63;2086740;28;33751;-77
2023/07/14 03:56:27;;;;;;;47.85;30.30;;;;;;;-146.25;100.00;52244.50;2087334;28;26297;-77
2023/07/14 03:57:31;;;;;;;40.03;27.17;;;;;;;-146.25;100.00;52254.66;2087514;28;21004;-75
2023/07/14 03:58:34;;;;;;;47.42;31.33;;;;;;;-146.25;100.00;52258.72;2080246;28;21017;-77
2023/07/14 03:59:35;;;;;;;47.55;31.42;;;;;;;-146.25;100.00;52226.25;2087368;28;30896;-77
2023/07/14 04:00:37;;;;;;;58.55;33.92;;;;;;;-146.25;100.00;52248.56;2086938;28;34273;-78
2023/07/14 04:01:39;;;;;;;39.72;28.17;;;;;;;-146.25;100.00;52264.78;2088034;28;26172;-78
2023/07/14 04:02:42;;;;;;;47.42;32.15;;;;;;;-146.25;100.00;52270.88;2087649;28;32418;-78
2023/07/14 04:03:45;;;;;;;45.78;32.53;;;;;;;-146.25;100.00;52289.13;2088269;28;20105;-77
2023/07/14 04:04:47;;;;;;;47.20;32.42;;;;;;;-146.25;100.00;52240.47;2087270;28;35451;-77
2023/07/14 04:05:49;;;;;;;52.85;35.17;;;;;;;-146.25;100.00;52238.44;2088076;28;20041;-76
2023/07/14 04:06:50;;;;;;;48.17;31.83;;;;;;;-146.25;100.00;52252.63;2088337;28;28937;-77
2023/07/14 04:07:52;;;;;;;44.15;31.48;;;;;;;-146.25;100.00;52254.66;2088373;28;20791;-77
2023/07/14 04:09:00;;;;;;;45.85;32.10;;;;;;;-146.25;100.00;52252.63;2087579;28;34804;-77
2023/07/14 04:10:06;;;;;;;50.35;33.75;;;;;;;-146.25;100.00;52240.47;2081429;28;20180;-77
2023/07/14 04:11:12;;;;;;;42.45;29.63;;;;;;;-146.25;100.00;52270.88;2087822;28;20045;-76
2023/07/14 04:12:14;;;;;;;44.40;31.08;;;;;;;-146.25;100.00;52274.94;2064052;28;23197;-77
2023/07/14 04:13:15;;;;;;;41.63;30.73;;;;;;;-146.25;100.00;52230.31;2072208;28;20127;-76
2023/07/14 04:14:17;;;;;;;38.85;30.63;;;;;;;-146.25;100.00;52258.72;2087149;28;31413;-77
2023/07/14 04:15:21;;;;;;;33.45;27.52;;;;;;;-146.25;100.00;52222.22;2079659;28;24111;-77
2023/07/14 04:16:24;;;;;;;35.72;28.05;;;;;;;-146.25;100.00;52238.44;2079128;28;35274;-76
2023/07/14 04:17:28;;;;;;;32.17;25.38;;;;;;;-146.25;100.00;52262.75;2087628;28;35449;-77
2023/07/14 04:18:31;;;;;;;27.60;24.63;;;;;;;-146.25;100.00;52252.63;2087862;28;20088;-75
2023/07/14 04:19:33;;;;;;;29.00;24.15;;;;;;;-146.25;100.00;52266.81;2079820;28;35498;-76
2023/07/14 04:20:34;;;;;;;25.48;22.00;;;;;;;-146.25;100.00;52274.94;2087427;28;32596;-78
2023/07/14 04:21:36;;;;;;;28.00;20.75;;;;;;;-146.25;100.00;52256.69;2087039;28;34433;-76
2023/07/14 04:22:38;;;;;;;23.45;20.65;;;;;;;-146.25;100.00;52242.50;2087062;28;34700;-76
2023/07/14 04:23:42;;;;;;;22.70;20.33;;;;;;;-146.25;100.00;52262.75;2087643;28;34741;-77
2023/07/14 04:24:45;;;;;;;23.75;18.88;;;;;;;-146.25;100.00;52266.81;2087134;28;33863;-78
2023/07/14 04:25:49;;;;;;;18.23;16.30;;;;;;;-146.25;100.00;52244.50;2088455;28;20160;-78
2023/07/14 04:26:55;;;;;;;20.23;15.95;;;;;;;-146.25;100.00;52246.53;2087125;28;37219;-78
2023/07/14 04:27:57;;;;;;;19.20;16.60;;;;;;;-146.25;100.00;52256.69;2087318;28;33856;-78
2023/07/14 04:29:01;;;;;;;17.33;15.63;;;;;;;-146.25;100.00;52254.66;2071609;28;40225;-78
2023/07/14 04:30:08;;;;;;;17.15;15.13;;;;;;;-146.25;100.00;52250.59;2071912;28;21679;-77
2023/07/14 04:31:10;;;;;;;19.75;14.88;;;;;;;-146.25;100.00;52258.72;2088222;28;20065;-77
2023/07/14 04:32:14;;;;;;;16.80;13.88;;;;;;;-146.25;100.00;52274.94;2088643;28;20042;-79
2023/07/14 04:33:17;;;;;;;13.73;12.45;;;;;;;-146.25;100.00;52264.78;2087164;28;34716;-78
2023/07/14 04:34:22;;;;;;;21.23;13.43;;;;;;;-146.25;100.00;52283.03;2088091;28;20923;-78
2023/07/14 04:35:27;;;;;;;14.38;12.55;;;;;;;-146.25;100.00;52232.34;2088049;28;26860;-78
2023/07/14 04:36:29;;;;;;;13.32;11.88;;;;;;;-146.25;100.00;52240.47;2087038;28;38114;-77
2023/07/14 04:37:30;;;;;;;12.88;11.57;;;;;;;-146.25;100.00;52232.34;2086868;28;33447;-78
2023/07/14 04:38:32;;;;;;;14.23;12.23;;;;;;;-146.25;100.00;52246.53;2087625;28;35300;-78
2023/07/14 04:39:34;;;;;;;11.57;10.40;;;;;;;-146.25;100.00;52262.75;2088012;28;35889;-77
2023/07/14 04:40:40;;;;;;;13.38;12.07;;;;;;;-146.25;100.00;52246.53;2087374;28;33745;-77
2023/07/14 04:41:44;;;;;;;11.70;10.60;;;;;;;-146.25;100.00;52293.19;2087953;28;33805;-78
2023/07/14 04:42:48;;;;;;;15.82;10.98;;;;;;;-146.25;100.00;52252.63;2079443;28;20073;-78
2023/07/14 04:43:53;;;;;;;12.63;11.32;;;;;;;-146.25;100.00;52250.59;2071878;28;36239;-77
2023/07/14 04:44:55;;;;;;;11.55;9.90;;;;;;;-146.25;100.00;52254.66;2087422;28;34833;-77
2023/07/14 04:45:57;;;;;;;10.88;9.82;;;;;;;-146.25;100.00;52254.66;2088963;28;20080;-78
2023/07/14 04:47:01;;;;;;;13.95;10.40;;;;;;;-146.25;100.00;52256.69;2087567;28;34890;-78
2023/07/14 04:48:07;;;;;;;11.05;9.93;;;;;;;-146.25;98.24;52293.19;2087085;28;35293;-77
2023/07/14 04:49:11;;;;;;;10.70;9.25;;;;;;;-146.25;99.04;52228.28;2079693;28;33926;-77
2023/07/14 04:50:14;;;;;;;11.90;9.45;;;;;;;-146.25;98.14;52266.81;2087766;28;20042;-78
2023/07/14 04:51:15;;;;;;;11.68;8.95;;;;;;;-146.25;95.59;52256.69;2087419;28;37114;-78
2023/07/14 04:52:18;;;;;;;10.55;9.45;;;;;;;-146.25;94.02;52250.59;2087713;28;36788;-78